createdAt,value
2022-11-09T00:00:22.028Z,97853.97
2022-11-09T00:02:47.692Z,97855.00
2022-11-09T00:05:13.395Z,97842.94
2022-11-09T00:07:39.096Z,97847.69
2022-11-09T00:10:05.579Z,97851.56
2022-11-09T00:12:31.299Z,97846.28
2022-11-09T00:14:57.021Z,97842.44
2022-11-09T00:17:22.719Z,97838.81
2022-11-09T00:19:48.387Z,97839.25
2022-11-09T00:22:14.145Z,97835.97
2022-11-09T00:24:39.830Z,97838.22
2022-11-09T00:27:05.526Z,97828.25
2022-11-09T00:29:31.233Z,97818.25
2022-11-09T00:31:57.143Z,97814.19
2022-11-09T00:34:22.811Z,97811.13
2022-11-09T00:36:48.544Z,97806.47
2022-11-09T00:39:14.208Z,97805.03
2022-11-09T00:41:39.886Z,97804.84
2022-11-09T00:44:05.651Z,97817.56
2022-11-09T00:46:31.522Z,97813.69
2022-11-09T00:48:57.332Z,97827.41
2022-11-09T00:51:23.095Z,97830.50
2022-11-09T00:53:53.084Z,97833.81
2022-11-09T00:56:18.757Z,97842.19
2022-11-09T00:58:44.689Z,97831.16
2022-11-09T01:01:11.989Z,97837.94
2022-11-09T01:03:38.017Z,97826.91
2022-11-09T01:06:04.907Z,97819.97
2022-11-09T01:08:32.260Z,97824.25
2022-11-09T01:11:07.146Z,97828.34
2022-11-09T01:13:33.160Z,97824.06
2022-11-09T01:15:58.827Z,97827.53
2022-11-09T01:18:24.550Z,97821.00
2022-11-09T01:20:50.363Z,97817.72
2022-11-09T01:23:18.319Z,97825.06
2022-11-09T01:25:44.449Z,97829.16
2022-11-09T01:28:10.996Z,97814.59
2022-11-09T01:30:40.043Z,97810.28
2022-11-09T01:33:07.416Z,97805.97
2022-11-09T01:35:34.952Z,97800.63
2022-11-09T01:38:01.259Z,97807.94
2022-11-09T01:40:28.460Z,97803.59
2022-11-09T01:42:54.175Z,97801.56
2022-11-09T01:45:24.640Z,97803.59
2022-11-09T01:48:11.386Z,97800.50
2022-11-09T01:51:01.890Z,97798.66
2022-11-09T01:53:32.873Z,97804.56
2022-11-09T01:56:03.173Z,97798.00
2022-11-09T01:58:35.402Z,97794.69
2022-11-09T02:01:02.126Z,97800.97
2022-11-09T02:03:36.329Z,97805.09
2022-11-09T02:06:05.136Z,97803.25
2022-11-09T02:08:30.855Z,97807.53
2022-11-09T02:11:05.633Z,97810.56
2022-11-09T02:13:33.074Z,97813.00
2022-11-09T02:15:59.435Z,97808.28
2022-11-09T02:18:26.349Z,97797.66
2022-11-09T02:20:54.185Z,97805.84
2022-11-09T02:23:21.001Z,97804.44
2022-11-09T02:26:10.311Z,97797.50
2022-11-09T02:28:38.533Z,97798.53
2022-11-09T02:31:09.179Z,97808.72
2022-11-09T02:33:50.116Z,97804.81
2022-11-09T02:36:16.205Z,97804.38
2022-11-09T02:38:42.205Z,97808.66
2022-11-09T02:41:10.682Z,97800.03
2022-11-09T02:43:36.727Z,97788.72
2022-11-09T02:46:02.905Z,97796.94
2022-11-09T02:48:28.689Z,97797.34
2022-11-09T02:50:54.474Z,97787.06
2022-11-09T02:53:20.607Z,97788.91
2022-11-09T02:55:46.459Z,97797.50
2022-11-09T02:58:12.200Z,97794.97
2022-11-09T03:00:37.863Z,97788.63
2022-11-09T03:03:03.916Z,97790.63
2022-11-09T03:05:29.717Z,97789.38
2022-11-09T03:07:56.283Z,97788.34
2022-11-09T03:10:22.289Z,97789.38
2022-11-09T03:12:48.431Z,97795.72
2022-11-09T03:15:14.201Z,97796.91
2022-11-09T03:17:39.887Z,97797.09
2022-11-09T03:20:06.509Z,97796.66
2022-11-09T03:22:32.226Z,97805.81
2022-11-09T03:24:58.112Z,97802.94
2022-11-09T03:27:24.089Z,97798.81
2022-11-09T03:29:49.769Z,97796.72
2022-11-09T03:32:15.427Z,97805.69
2022-11-09T03:34:41.542Z,97812.22
2022-11-09T03:37:07.232Z,97801.13
2022-11-09T03:39:33.253Z,97801.94
2022-11-09T03:41:59.199Z,97796.03
2022-11-09T03:44:24.980Z,97797.50
2022-11-09T03:46:50.695Z,97797.50
2022-11-09T03:49:16.708Z,97792.53
2022-11-09T03:51:42.477Z,97790.69
2022-11-09T03:54:08.172Z,97800.75
2022-11-09T03:56:33.854Z,97810.59
2022-11-09T03:58:59.661Z,97815.47
2022-11-09T04:01:25.508Z,97820.34
2022-11-09T04:03:51.315Z,97843.97
2022-11-09T04:06:17.257Z,97860.44
2022-11-09T04:08:47.008Z,97865.72
2022-11-09T04:11:15.868Z,97852.81
2022-11-09T04:13:41.864Z,97867.75
2022-11-09T04:16:07.540Z,97868.38
2022-11-09T04:18:33.651Z,97863.88
2022-11-09T04:20:59.423Z,97874.91
2022-11-09T04:23:27.718Z,97864.63
2022-11-09T04:25:53.467Z,97866.84
2022-11-09T04:28:19.180Z,97872.13
2022-11-09T04:30:44.914Z,97852.81
2022-11-09T04:33:10.592Z,97864.91
2022-11-09T04:35:36.414Z,97852.63
2022-11-09T04:38:05.508Z,97847.28
2022-11-09T04:40:32.908Z,97836.00
2022-11-09T04:43:00.448Z,97836.81
2022-11-09T04:45:26.348Z,97840.75
2022-11-09T04:47:57.510Z,97840.94
2022-11-09T04:50:23.353Z,97853.59
2022-11-09T04:52:49.079Z,97859.50
2022-11-09T04:55:14.832Z,97864.16
2022-11-09T04:57:40.509Z,97854.69
2022-11-09T05:00:06.811Z,97855.28
2022-11-09T05:02:32.545Z,97860.63
2022-11-09T05:04:58.225Z,97871.88
2022-11-09T05:07:23.990Z,97879.22
2022-11-09T05:09:49.671Z,97882.47
2022-11-09T05:12:15.439Z,97882.25
2022-11-09T05:14:41.319Z,97885.38
2022-11-09T05:17:08.044Z,97888.44
2022-11-09T05:19:34.273Z,97876.16
2022-11-09T05:22:19.165Z,97884.59
2022-11-09T05:24:44.908Z,97885.19
2022-11-09T05:27:10.648Z,97887.63
2022-11-09T05:29:36.354Z,97897.28
2022-11-09T05:32:02.313Z,97889.88
2022-11-09T05:34:27.997Z,97891.50
2022-11-09T05:36:53.735Z,97884.09
2022-11-09T05:39:19.407Z,97893.50
2022-11-09T05:41:45.072Z,97904.75
2022-11-09T05:44:10.868Z,97924.22
2022-11-09T05:46:36.571Z,97915.41
2022-11-09T05:49:02.532Z,97927.69
2022-11-09T05:51:28.364Z,97926.66
2022-11-09T05:53:54.061Z,97924.59
2022-11-09T05:56:19.752Z,97927.03
2022-11-09T05:58:45.599Z,97931.94
2022-11-09T06:01:13.981Z,97933.56
2022-11-09T06:03:41.315Z,97937.63
2022-11-09T06:06:08.845Z,97931.88
2022-11-09T06:08:35.729Z,97927.59
2022-11-09T06:11:04.597Z,97927.41
2022-11-09T06:13:30.633Z,97943.41
2022-11-09T06:15:59.308Z,97946.50
2022-11-09T06:18:27.461Z,97961.09
2022-11-09T06:20:54.726Z,97954.94
2022-11-09T06:23:24.800Z,97952.88
2022-11-09T06:26:11.606Z,97952.28
2022-11-09T06:28:38.738Z,97954.56
2022-11-09T06:31:09.630Z,97954.19
2022-11-09T06:33:35.933Z,97947.28
2022-11-09T06:36:02.994Z,97953.63
2022-11-09T06:38:28.826Z,97955.06
2022-11-09T06:40:56.273Z,97958.34
2022-11-09T06:43:22.682Z,97944.63
2022-11-09T06:45:49.189Z,97942.16
2022-11-09T06:48:14.933Z,97952.22
2022-11-09T06:50:40.877Z,97955.94
2022-11-09T06:53:10.319Z,97954.06
2022-11-09T06:55:37.220Z,97962.06
2022-11-09T06:58:07.721Z,97972.50
2022-11-09T07:00:33.779Z,97973.53
2022-11-09T07:02:59.468Z,97968.22
2022-11-09T07:05:25.182Z,97970.28
2022-11-09T07:07:50.993Z,97970.94
2022-11-09T07:10:17.168Z,97978.13
2022-11-09T07:12:43.105Z,97985.28
2022-11-09T07:15:11.042Z,97982.84
2022-11-09T07:17:38.916Z,97984.09
2022-11-09T07:20:06.735Z,97982.69
2022-11-09T07:22:34.148Z,97974.91
2022-11-09T07:25:00.141Z,97976.56
2022-11-09T07:27:28.134Z,97975.97
2022-11-09T07:29:54.321Z,97976.19
2022-11-09T07:32:20.063Z,97978.69
2022-11-09T07:34:46.908Z,97985.06
2022-11-09T07:37:12.594Z,97997.13
2022-11-09T07:39:38.284Z,97989.13
2022-11-09T07:42:03.989Z,97988.31
2022-11-09T07:44:29.677Z,97980.16
2022-11-09T07:46:55.660Z,97981.19
2022-11-09T07:49:21.370Z,97982.22
2022-11-09T07:51:47.363Z,97981.19
2022-11-09T07:54:13.125Z,97995.47
2022-11-09T07:56:38.850Z,97993.81
2022-11-09T07:59:04.808Z,97983.31
2022-11-09T08:01:31.072Z,97988.63
2022-11-09T08:03:56.911Z,97988.34
2022-11-09T08:06:27.119Z,97980.72
2022-11-09T08:08:57.173Z,97980.69
2022-11-09T08:11:23.736Z,97987.66
2022-11-09T08:13:50.258Z,97986.41
2022-11-09T08:16:16.495Z,97993.34
2022-11-09T08:18:42.200Z,97994.59
2022-11-09T08:21:08.219Z,97994.84
2022-11-09T08:23:33.891Z,97993.66
2022-11-09T08:26:05.274Z,98000.69
2022-11-09T08:28:31.725Z,97996.16
2022-11-09T08:30:59.899Z,97989.59
2022-11-09T08:33:27.838Z,97994.09
2022-11-09T08:35:53.638Z,97997.16
2022-11-09T08:38:19.662Z,98004.66
2022-11-09T08:40:45.614Z,98007.88
2022-11-09T08:43:11.513Z,98013.13
2022-11-09T08:45:39.976Z,98004.25
2022-11-09T08:48:06.975Z,98008.94
2022-11-09T08:50:35.092Z,98011.38
2022-11-09T08:53:01.932Z,98012.50
2022-11-09T08:55:27.871Z,98012.91
2022-11-09T08:57:55.720Z,98006.31
2022-11-09T09:00:21.664Z,98010.38
2022-11-09T09:02:47.994Z,98011.13
2022-11-09T09:05:14.097Z,98000.44
2022-11-09T09:07:39.759Z,98007.84
2022-11-09T09:10:05.857Z,98017.72
2022-11-09T09:12:31.552Z,98017.25
2022-11-09T09:14:57.300Z,98018.09
2022-11-09T09:17:22.978Z,98025.03
2022-11-09T09:19:50.079Z,98026.44
2022-11-09T09:22:15.941Z,98027.28
2022-11-09T09:24:41.614Z,98037.91
2022-11-09T09:27:07.296Z,98039.91
2022-11-09T09:29:32.983Z,98036.34
2022-11-09T09:31:58.742Z,98034.25
2022-11-09T09:34:25.261Z,98046.69
2022-11-09T09:36:54.091Z,98038.06
2022-11-09T09:39:20.384Z,98051.31
2022-11-09T09:41:53.579Z,98063.84
2022-11-09T09:44:29.229Z,98054.72
2022-11-09T09:46:58.933Z,98053.59
2022-11-09T09:49:29.744Z,98058.25
2022-11-09T09:52:07.234Z,98060.56
2022-11-09T09:54:38.942Z,98058.72
2022-11-09T09:57:16.270Z,98044.66
2022-11-09T09:59:45.791Z,98038.47
2022-11-09T10:02:29.283Z,98030.34
2022-11-09T10:04:58.174Z,98023.59
2022-11-09T10:07:26.847Z,98012.47
2022-11-09T10:10:16.963Z,98014.31
2022-11-09T10:13:11.424Z,98019.78
2022-11-09T10:15:45.665Z,98012.28
2022-11-09T10:18:23.854Z,98015.31
2022-11-09T10:21:05.210Z,98013.94
2022-11-09T10:23:44.403Z,98014.25
2022-11-09T10:26:18.351Z,98016.34
2022-11-09T10:29:14.579Z,98011.69
2022-11-09T10:31:41.886Z,98007.53
2022-11-09T10:34:17.924Z,98003.44
2022-11-09T10:37:05.353Z,97982.44
2022-11-09T10:39:46.905Z,97982.44
2022-11-09T10:42:12.673Z,97980.78
2022-11-09T10:44:38.479Z,97981.03
2022-11-09T10:47:10.858Z,97985.56
2022-11-09T10:49:38.418Z,97981.72
2022-11-09T10:52:05.553Z,97978.13
2022-11-09T10:54:37.050Z,97976.44
2022-11-09T10:57:06.804Z,97981.13
2022-11-09T10:59:42.837Z,97977.44
2022-11-09T11:02:23.954Z,97971.38
2022-11-09T11:04:50.203Z,97969.38
2022-11-09T11:07:21.890Z,97959.44
2022-11-09T11:09:47.653Z,97964.97
2022-11-09T11:12:16.096Z,97960.06
2022-11-09T11:14:43.917Z,97957.78
2022-11-09T11:17:21.713Z,97959.50
2022-11-09T11:19:47.522Z,97949.78
2022-11-09T11:22:13.598Z,97945.38
2022-11-09T11:24:52.247Z,97938.47
2022-11-09T11:27:41.600Z,97939.13
2022-11-09T11:30:37.717Z,97938.06
2022-11-09T11:33:13.789Z,97929.94
2022-11-09T11:35:45.678Z,97924.63
2022-11-09T11:38:26.733Z,97914.97
2022-11-09T11:41:36.297Z,97921.31
2022-11-09T11:44:05.343Z,97918.25
2022-11-09T11:47:03.933Z,97920.69
2022-11-09T11:49:56.275Z,97911.41
2022-11-09T11:52:39.920Z,97906.50
2022-11-09T11:55:38.292Z,97910.31
2022-11-09T11:58:24.082Z,97905.19
2022-11-09T12:01:37.691Z,97905.69
2022-11-09T12:04:36.588Z,97899.91
2022-11-09T12:07:10.864Z,97898.69
2022-11-09T12:10:12.397Z,97894.28
2022-11-09T12:13:17.272Z,97890.81
2022-11-09T12:15:54.376Z,97892.50
2022-11-09T12:18:38.684Z,97892.88
2022-11-09T12:21:22.439Z,97893.47
2022-11-09T12:24:04.327Z,97898.09
2022-11-09T12:26:45.464Z,97900.66
2022-11-09T12:29:20.846Z,97894.31
2022-11-09T12:32:11.791Z,97895.75
2022-11-09T12:34:58.610Z,97895.50
2022-11-09T12:37:28.777Z,97885.56
2022-11-09T12:39:59.624Z,97890.13
2022-11-09T12:42:35.448Z,97884.69
2022-11-09T12:45:13.484Z,97893.72
2022-11-09T12:47:42.611Z,97883.44
2022-11-09T12:50:18.162Z,97882.41
2022-11-09T12:52:46.772Z,97890.34
2022-11-09T12:55:19.332Z,97883.31
2022-11-09T12:57:47.017Z,97890.28
2022-11-09T13:00:33.070Z,97890.16
2022-11-09T13:03:01.025Z,97882.44
2022-11-09T13:05:29.726Z,97889.22
2022-11-09T13:07:59.411Z,97888.44
2022-11-09T13:10:33.837Z,97893.03
2022-11-09T13:13:11.819Z,97883.41
2022-11-09T13:15:39.411Z,97886.97
2022-11-09T13:18:22.679Z,97889.44
2022-11-09T13:20:57.822Z,97889.41
2022-11-09T13:23:59.890Z,97893.97
2022-11-09T13:26:30.559Z,97895.03
2022-11-09T13:29:18.301Z,97896.38
2022-11-09T13:32:12.156Z,97894.97
2022-11-09T13:34:46.890Z,97887.94
2022-11-09T13:37:40.308Z,97885.75
2022-11-09T13:40:30.734Z,97890.00
2022-11-09T13:43:05.635Z,97889.22
2022-11-09T13:45:52.457Z,97901.06
2022-11-09T13:48:29.259Z,97894.91
2022-11-09T13:50:57.955Z,97895.81
2022-11-09T13:53:48.306Z,97903.63
2022-11-09T13:56:29.240Z,97901.09
2022-11-09T13:59:36.375Z,97906.16
2022-11-09T14:02:02.763Z,97901.78
2022-11-09T14:04:32.911Z,97906.28
2022-11-09T14:07:06.210Z,97903.50
2022-11-09T14:09:40.671Z,97908.19
2022-11-09T14:12:25.609Z,97908.06
2022-11-09T14:15:11.716Z,97914.19
2022-11-09T14:17:44.491Z,97914.38
2022-11-09T14:20:25.211Z,97911.97
2022-11-09T14:22:51.446Z,97918.59
2022-11-09T14:25:20.494Z,97917.78
2022-11-09T14:27:56.868Z,97919.13
2022-11-09T14:30:27.048Z,97934.09
2022-11-09T14:32:54.425Z,97924.13
2022-11-09T14:35:33.884Z,97937.47
2022-11-09T14:38:01.140Z,97936.53
2022-11-09T14:40:31.953Z,97933.03
2022-11-09T14:43:04.620Z,97934.91
2022-11-09T14:45:30.765Z,97931.66
2022-11-09T14:47:58.869Z,97941.03
2022-11-09T14:50:32.516Z,97937.78
2022-11-09T14:53:00.419Z,97940.16
2022-11-09T14:55:26.814Z,97942.28
2022-11-09T14:57:54.404Z,97939.28
2022-11-09T15:00:45.649Z,97943.50
2022-11-09T15:03:29.708Z,97941.53
2022-11-09T15:06:10.170Z,97939.03
2022-11-09T15:08:44.119Z,97944.00
2022-11-09T15:11:10.219Z,97952.78
2022-11-09T15:13:38.767Z,97944.41
2022-11-09T15:16:05.918Z,97948.63
2022-11-09T15:18:34.922Z,97950.41
2022-11-09T15:21:32.529Z,97954.97
2022-11-09T15:24:07.209Z,97955.63
2022-11-09T15:26:39.465Z,97957.13
2022-11-09T15:29:28.825Z,97954.69
2022-11-09T15:32:19.516Z,97963.81
2022-11-09T15:34:51.113Z,97959.75
2022-11-09T15:37:31.140Z,97955.69
2022-11-09T15:39:58.233Z,97958.03
2022-11-09T15:42:25.692Z,97960.13
2022-11-09T15:44:57.381Z,97962.00
2022-11-09T15:47:34.850Z,97963.31
2022-11-09T15:50:22.572Z,97959.25
2022-11-09T15:52:49.048Z,97965.88
2022-11-09T15:55:17.631Z,97961.00
2022-11-09T15:57:44.195Z,97962.28
2022-11-09T16:00:19.645Z,97960.34
2022-11-09T16:02:46.771Z,97970.50
2022-11-09T16:05:12.818Z,97963.75
2022-11-09T16:07:50.868Z,97966.66
2022-11-09T16:10:19.585Z,97970.06
2022-11-09T16:12:46.705Z,97982.28
2022-11-09T16:15:12.932Z,97983.81
2022-11-09T16:17:38.673Z,97988.59
2022-11-09T16:20:04.888Z,97986.38
2022-11-09T16:22:34.363Z,97983.69
2022-11-09T16:25:00.851Z,97986.03
2022-11-09T16:27:48.924Z,97991.41
2022-11-09T16:30:13.255Z,98003.16
2022-11-09T16:32:39.407Z,98006.66
2022-11-09T16:35:26.215Z,98000.25
2022-11-09T16:37:54.271Z,98002.13
2022-11-09T16:40:20.373Z,97999.69
2022-11-09T16:42:47.032Z,98006.91
2022-11-09T16:45:15.316Z,98009.00
2022-11-09T16:47:45.547Z,98011.09
2022-11-09T16:50:11.299Z,98010.06
2022-11-09T16:52:37.113Z,98011.69
2022-11-09T16:55:03.525Z,98017.03
2022-11-09T16:57:29.241Z,98017.84
2022-11-09T16:59:54.929Z,98014.94
2022-11-09T17:02:20.675Z,98012.25
2022-11-09T17:04:46.439Z,98013.88
2022-11-09T17:07:12.163Z,98019.72
2022-11-09T17:09:37.966Z,98027.66
2022-11-09T17:12:03.976Z,98026.47
2022-11-09T17:14:30.361Z,98033.91
2022-11-09T17:16:59.124Z,98032.28
2022-11-09T17:19:24.808Z,98042.44
2022-11-09T17:21:50.742Z,98036.25
2022-11-09T17:24:16.606Z,98039.75
2022-11-09T17:26:42.299Z,98053.94
2022-11-09T17:29:08.119Z,98050.47
2022-11-09T17:31:33.883Z,98057.22
2022-11-09T17:34:01.325Z,98061.97
2022-11-09T17:36:49.306Z,98061.16
2022-11-09T17:39:13.053Z,98057.69
2022-11-09T17:41:42.429Z,98071.88
2022-11-09T17:44:08.750Z,98070.84
2022-11-09T17:46:34.513Z,98070.00
2022-11-09T17:49:00.333Z,98077.00
2022-11-09T17:51:26.156Z,98083.97
2022-11-09T17:53:51.834Z,98083.16
2022-11-09T17:56:17.784Z,98084.44
2022-11-09T17:58:45.298Z,98089.00
2022-11-09T18:01:14.053Z,98085.75
2022-11-09T18:03:40.202Z,98089.34
2022-11-09T18:06:11.460Z,98091.69
2022-11-09T18:08:37.235Z,98099.97
2022-11-09T18:11:03.002Z,98098.28
2022-11-09T18:13:28.833Z,98100.41
2022-11-09T18:15:54.572Z,98107.03
2022-11-09T18:18:20.866Z,98117.75
2022-11-09T18:20:46.822Z,98121.22
2022-11-09T18:23:13.441Z,98118.78
2022-11-09T18:25:39.483Z,98116.09
2022-11-09T18:28:05.441Z,98119.59
2022-11-09T18:30:31.434Z,98122.03
2022-11-09T18:32:57.152Z,98118.91
2022-11-09T18:35:23.176Z,98119.72
2022-11-09T18:37:48.919Z,98110.88
2022-11-09T18:40:15.707Z,98123.44
2022-11-09T18:42:41.747Z,98119.94
2022-11-09T18:45:09.397Z,98129.41
2022-11-09T18:47:35.743Z,98129.16
2022-11-09T18:50:01.735Z,98136.97
2022-11-09T18:52:27.430Z,98135.09
2022-11-09T18:54:53.210Z,98139.88
2022-11-09T18:57:20.139Z,98140.69
2022-11-09T18:59:45.951Z,98139.28
2022-11-09T19:02:13.212Z,98150.00
2022-11-09T19:04:39.579Z,98145.56
2022-11-09T19:07:05.429Z,98151.72
2022-11-09T19:09:34.982Z,98152.31
2022-11-09T19:12:03.285Z,98148.00
2022-11-09T19:14:29.631Z,98154.50
2022-11-09T19:16:55.358Z,98154.16
2022-11-09T19:19:21.228Z,98150.31
2022-11-09T19:21:55.068Z,98159.00
2022-11-09T19:24:23.738Z,98158.00
2022-11-09T19:26:50.059Z,98158.94
2022-11-09T19:29:16.335Z,98156.84
2022-11-09T19:31:43.062Z,98152.06
2022-11-09T19:34:10.844Z,98160.91
2022-11-09T19:36:36.682Z,98165.22
2022-11-09T19:39:02.510Z,98156.38
2022-11-09T19:41:28.841Z,98165.44
2022-11-09T19:43:57.908Z,98168.94
2022-11-09T19:46:25.251Z,98169.88
2022-11-09T19:48:50.844Z,98166.97
2022-11-09T19:51:17.478Z,98174.28
2022-11-09T19:53:53.990Z,98179.22
2022-11-09T19:56:21.935Z,98179.22
2022-11-09T19:58:52.612Z,98167.69
2022-11-09T20:01:18.724Z,98176.97
2022-11-09T20:03:49.826Z,98176.38
2022-11-09T20:06:16.192Z,98181.75
2022-11-09T20:08:41.894Z,98179.31
2022-11-09T20:11:10.714Z,98187.22
2022-11-09T20:13:38.507Z,98185.47
2022-11-09T20:16:08.734Z,98192.91
2022-11-09T20:18:36.390Z,98197.91
2022-11-09T20:21:03.255Z,98201.00
2022-11-09T20:23:28.951Z,98208.84
2022-11-09T20:26:09.211Z,98228.59
2022-11-09T20:28:35.214Z,98212.19
2022-11-09T20:31:07.764Z,98219.38
2022-11-09T20:33:33.546Z,98217.53
2022-11-09T20:35:59.223Z,98219.97
2022-11-09T20:38:24.971Z,98220.19
2022-11-09T20:40:55.087Z,98225.56
2022-11-09T20:43:21.942Z,98228.81
2022-11-09T20:45:47.650Z,98232.31
2022-11-09T20:48:31.390Z,98235.22
2022-11-09T20:51:06.788Z,98241.38
2022-11-09T20:53:33.110Z,98241.16
2022-11-09T20:55:59.215Z,98237.06
2022-11-09T20:58:26.569Z,98243.69
2022-11-09T21:01:02.289Z,98247.88
2022-11-09T21:03:28.111Z,98247.28
2022-11-09T21:05:58.940Z,98244.47
2022-11-09T21:08:25.972Z,98248.44
2022-11-09T21:10:51.868Z,98244.94
2022-11-09T21:13:17.873Z,98245.16
2022-11-09T21:15:43.624Z,98258.78
2022-11-09T21:18:09.583Z,98259.78
2022-11-09T21:20:36.069Z,98258.38
2022-11-09T21:23:13.766Z,98256.53
2022-11-09T21:26:01.037Z,98257.34
2022-11-09T21:28:47.866Z,98258.16
2022-11-09T21:31:14.011Z,98267.81
2022-11-09T21:33:39.984Z,98268.63
2022-11-09T21:36:06.841Z,98278.50
2022-11-09T21:38:32.630Z,98282.44
2022-11-09T21:41:22.565Z,98293.38
2022-11-09T21:43:51.851Z,98294.41
2022-11-09T21:46:17.539Z,98302.44
2022-11-09T21:48:43.265Z,98311.50
2022-11-09T21:51:09.108Z,98305.22
2022-11-09T21:53:36.392Z,98308.34
2022-11-09T21:56:03.682Z,98303.66
2022-11-09T21:58:29.379Z,98317.25
2022-11-09T22:01:10.098Z,98315.00
2022-11-09T22:03:37.098Z,98306.97
2022-11-09T22:06:03.414Z,98315.63
2022-11-09T22:08:29.618Z,98309.47
2022-11-09T22:11:09.943Z,98313.75
2022-11-09T22:13:54.851Z,98314.81
2022-11-09T22:16:22.391Z,98318.28
2022-11-09T22:19:06.734Z,98321.16
2022-11-09T22:21:33.037Z,98327.56
2022-11-09T22:24:00.163Z,98324.88
2022-11-09T22:26:27.670Z,98331.03
2022-11-09T22:28:53.340Z,98338.25
2022-11-09T22:31:19.155Z,98341.97
2022-11-09T22:33:45.182Z,98350.81
2022-11-09T22:36:12.371Z,98340.72
2022-11-09T22:38:38.108Z,98347.91
2022-11-09T22:41:09.932Z,98346.28
2022-11-09T22:43:37.709Z,98341.97
2022-11-09T22:46:11.561Z,98335.78
2022-11-09T22:48:38.080Z,98349.38
2022-11-09T22:51:04.399Z,98338.31
2022-11-09T22:53:30.709Z,98347.38
2022-11-09T22:55:58.908Z,98345.16
2022-11-09T22:58:25.572Z,98352.00
2022-11-09T23:00:51.585Z,98348.94
2022-11-09T23:03:18.375Z,98359.03
2022-11-09T23:05:44.888Z,98367.28
2022-11-09T23:08:11.032Z,98373.25
2022-11-09T23:10:37.101Z,98367.50
2022-11-09T23:13:03.732Z,98375.16
2022-11-09T23:15:29.763Z,98375.59
2022-11-09T23:18:15.328Z,98378.72
2022-11-09T23:20:41.375Z,98385.53
2022-11-09T23:23:07.999Z,98391.69
2022-11-09T23:25:53.777Z,98389.66
2022-11-09T23:28:19.776Z,98392.38
2022-11-09T23:30:45.779Z,98400.41
2022-11-09T23:33:11.764Z,98404.94
2022-11-09T23:35:37.723Z,98416.66
2022-11-09T23:38:05.341Z,98417.69
2022-11-09T23:40:33.404Z,98419.59
2022-11-09T23:43:00.790Z,98421.66
2022-11-09T23:45:26.539Z,98430.72
2022-11-09T23:47:52.663Z,98429.31
2022-11-09T23:50:18.751Z,98430.19
2022-11-09T23:52:44.482Z,98424.47
2022-11-09T23:55:10.461Z,98427.94
2022-11-09T23:57:36.281Z,98431.66
